sensor_id;sensor_type;location;lat;lon;timestamp;P1;durP1;ratioP1;P2;durP2;ratioP2
52962;SDS011;38827;53.024;6.596;2023-05-19T00:01:05;17.98;;;5.78;;
52962;SDS011;38827;53.024;6.596;2023-05-19T00:03:34;16.80;;;6.00;;
52962;SDS011;38827;53.024;6.596;2023-05-19T00:06:04;15.85;;;6.03;;
52962;SDS011;38827;53.024;6.596;2023-05-19T00:08:37;15.88;;;5.80;;
52962;SDS011;38827;53.024;6.596;2023-05-19T00:11:03;16.58;;;6.30;;
52962;SDS011;38827;53.024;6.596;2023-05-19T00:13:30;17.85;;;6.30;;
52962;SDS011;38827;53.024;6.596;2023-05-19T00:15:56;19.27;;;6.07;;
52962;SDS011;38827;53.024;6.596;2023-05-19T00:18:21;14.38;;;5.57;;
52962;SDS011;38827;53.024;6.596;2023-05-19T00:20:47;14.32;;;5.90;;
52962;SDS011;38827;53.024;6.596;2023-05-19T00:23:13;16.38;;;5.95;;
52962;SDS011;38827;53.024;6.596;2023-05-19T00:25:39;13.98;;;5.53;;
52962;SDS011;38827;53.024;6.596;2023-05-19T00:28:05;13.07;;;5.55;;
52962;SDS011;38827;53.024;6.596;2023-05-19T00:30:30;15.48;;;5.78;;
52962;SDS011;38827;53.024;6.596;2023-05-19T00:33:00;17.90;;;5.97;;
52962;SDS011;38827;53.024;6.596;2023-05-19T00:35:26;15.15;;;5.65;;
52962;SDS011;38827;53.024;6.596;2023-05-19T00:37:51;14.18;;;6.00;;
52962;SDS011;38827;53.024;6.596;2023-05-19T00:40:17;15.38;;;6.18;;
52962;SDS011;38827;53.024;6.596;2023-05-19T00:42:43;11.13;;;5.68;;
52962;SDS011;38827;53.024;6.596;2023-05-19T00:45:08;15.82;;;6.43;;
52962;SDS011;38827;53.024;6.596;2023-05-19T00:47:34;16.67;;;5.63;;
52962;SDS011;38827;53.024;6.596;2023-05-19T00:50:00;21.38;;;6.88;;
52962;SDS011;38827;53.024;6.596;2023-05-19T00:52:26;19.45;;;6.18;;
52962;SDS011;38827;53.024;6.596;2023-05-19T00:54:52;17.50;;;6.82;;
52962;SDS011;38827;53.024;6.596;2023-05-19T00:57:19;20.13;;;6.50;;
52962;SDS011;38827;53.024;6.596;2023-05-19T00:59:46;12.23;;;6.22;;
52962;SDS011;38827;53.024;6.596;2023-05-19T01:02:13;13.80;;;6.28;;
52962;SDS011;38827;53.024;6.596;2023-05-19T01:04:39;13.90;;;6.05;;
52962;SDS011;38827;53.024;6.596;2023-05-19T01:07:06;19.65;;;6.47;;
52962;SDS011;38827;53.024;6.596;2023-05-19T01:09:32;17.10;;;6.82;;
52962;SDS011;38827;53.024;6.596;2023-05-19T01:11:58;16.23;;;6.05;;
52962;SDS011;38827;53.024;6.596;2023-05-19T01:14:24;18.63;;;6.65;;
52962;SDS011;38827;53.024;6.596;2023-05-19T01:17:00;17.73;;;6.40;;
52962;SDS011;38827;53.024;6.596;2023-05-19T01:19:46;19.52;;;6.75;;
52962;SDS011;38827;53.024;6.596;2023-05-19T01:22:41;13.93;;;5.80;;
52962;SDS011;38827;53.024;6.596;2023-05-19T01:31:09;15.98;;;6.28;;
52962;SDS011;38827;53.024;6.596;2023-05-19T01:33:36;18.02;;;7.68;;
52962;SDS011;38827;53.024;6.596;2023-05-19T01:36:03;17.15;;;6.78;;
52962;SDS011;38827;53.024;6.596;2023-05-19T01:38:32;20.05;;;7.13;;
52962;SDS011;38827;53.024;6.596;2023-05-19T01:43:27;17.27;;;5.90;;
52962;SDS011;38827;53.024;6.596;2023-05-19T01:45:53;19.17;;;7.30;;
52962;SDS011;38827;53.024;6.596;2023-05-19T01:48:19;16.33;;;6.55;;
52962;SDS011;38827;53.024;6.596;2023-05-19T01:50:45;16.17;;;6.70;;
52962;SDS011;38827;53.024;6.596;2023-05-19T01:53:11;23.02;;;6.57;;
52962;SDS011;38827;53.024;6.596;2023-05-19T01:55:47;21.42;;;6.90;;
52962;SDS011;38827;53.024;6.596;2023-05-19T01:58:19;17.45;;;6.95;;
52962;SDS011;38827;53.024;6.596;2023-05-19T02:00:58;24.83;;;7.43;;
52962;SDS011;38827;53.024;6.596;2023-05-19T02:14:34;20.48;;;7.07;;
52962;SDS011;38827;53.024;6.596;2023-05-19T02:17:05;21.65;;;7.63;;
52962;SDS011;38827;53.024;6.596;2023-05-19T02:19:34;17.60;;;6.93;;
52962;SDS011;38827;53.024;6.596;2023-05-19T02:22:03;22.55;;;6.85;;
52962;SDS011;38827;53.024;6.596;2023-05-19T02:24:28;16.52;;;6.97;;
52962;SDS011;38827;53.024;6.596;2023-05-19T02:26:54;17.10;;;6.90;;
52962;SDS011;38827;53.024;6.596;2023-05-19T02:29:20;16.98;;;6.45;;
52962;SDS011;38827;53.024;6.596;2023-05-19T02:31:45;23.77;;;7.35;;
52962;SDS011;38827;53.024;6.596;2023-05-19T02:34:12;20.87;;;7.03;;
52962;SDS011;38827;53.024;6.596;2023-05-19T02:36:38;19.77;;;6.70;;
52962;SDS011;38827;53.024;6.596;2023-05-19T02:39:07;16.13;;;6.15;;
52962;SDS011;38827;53.024;6.596;2023-05-19T02:41:33;16.58;;;6.70;;
52962;SDS011;38827;53.024;6.596;2023-05-19T02:43:59;16.20;;;5.70;;
52962;SDS011;38827;53.024;6.596;2023-05-19T02:46:24;19.15;;;6.40;;
52962;SDS011;38827;53.024;6.596;2023-05-19T02:48:51;17.77;;;6.40;;
52962;SDS011;38827;53.024;6.596;2023-05-19T02:51:17;19.05;;;6.40;;
52962;SDS011;38827;53.024;6.596;2023-05-19T02:53:42;16.23;;;5.97;;
52962;SDS011;38827;53.024;6.596;2023-05-19T02:56:08;19.38;;;6.80;;
52962;SDS011;38827;53.024;6.596;2023-05-19T02:58:34;20.27;;;6.82;;
52962;SDS011;38827;53.024;6.596;2023-05-19T03:00:59;17.63;;;6.65;;
52962;SDS011;38827;53.024;6.596;2023-05-19T03:03:25;21.17;;;6.88;;
52962;SDS011;38827;53.024;6.596;2023-05-19T03:05:51;16.08;;;7.05;;
52962;SDS011;38827;53.024;6.596;2023-05-19T03:08:17;25.75;;;7.22;;
52962;SDS011;38827;53.024;6.596;2023-05-19T03:10:44;22.42;;;7.30;;
52962;SDS011;38827;53.024;6.596;2023-05-19T03:13:10;15.38;;;6.07;;
52962;SDS011;38827;53.024;6.596;2023-05-19T03:15:37;19.35;;;6.65;;
52962;SDS011;38827;53.024;6.596;2023-05-19T03:18:02;16.48;;;6.75;;
52962;SDS011;38827;53.024;6.596;2023-05-19T03:20:28;26.77;;;8.18;;
52962;SDS011;38827;53.024;6.596;2023-05-19T03:22:57;20.55;;;7.22;;
52962;SDS011;38827;53.024;6.596;2023-05-19T03:25:23;21.05;;;6.78;;
52962;SDS011;38827;53.024;6.596;2023-05-19T03:27:48;17.27;;;5.95;;
52962;SDS011;38827;53.024;6.596;2023-05-19T03:30:14;22.10;;;7.72;;
52962;SDS011;38827;53.024;6.596;2023-05-19T03:32:40;15.75;;;6.25;;
52962;SDS011;38827;53.024;6.596;2023-05-19T03:35:05;21.13;;;7.18;;
52962;SDS011;38827;53.024;6.596;2023-05-19T03:37:31;22.13;;;6.97;;
52962;SDS011;38827;53.024;6.596;2023-05-19T03:39:57;21.52;;;7.10;;
52962;SDS011;38827;53.024;6.596;2023-05-19T03:42:23;16.57;;;6.63;;
52962;SDS011;38827;53.024;6.596;2023-05-19T03:44:49;19.08;;;6.85;;
52962;SDS011;38827;53.024;6.596;2023-05-19T03:47:15;17.50;;;6.57;;
52962;SDS011;38827;53.024;6.596;2023-05-19T03:49:41;23.60;;;7.63;;
52962;SDS011;38827;53.024;6.596;2023-05-19T03:52:06;19.27;;;6.65;;
52962;SDS011;38827;53.024;6.596;2023-05-19T03:54:33;16.45;;;6.38;;
52962;SDS011;38827;53.024;6.596;2023-05-19T03:56:59;21.15;;;7.68;;
52962;SDS011;38827;53.024;6.596;2023-05-19T03:59:26;21.58;;;7.57;;
52962;SDS011;38827;53.024;6.596;2023-05-19T04:01:52;20.48;;;6.78;;
52962;SDS011;38827;53.024;6.596;2023-05-19T04:04:17;20.92;;;7.13;;
52962;SDS011;38827;53.024;6.596;2023-05-19T04:06:43;19.50;;;7.38;;
52962;SDS011;38827;53.024;6.596;2023-05-19T04:09:10;21.75;;;7.70;;
52962;SDS011;38827;53.024;6.596;2023-05-19T04:11:37;21.27;;;8.07;;
52962;SDS011;38827;53.024;6.596;2023-05-19T04:14:04;21.27;;;6.95;;
52962;SDS011;38827;53.024;6.596;2023-05-19T04:16:30;17.75;;;7.22;;
52962;SDS011;38827;53.024;6.596;2023-05-19T04:18:59;22.73;;;7.63;;
52962;SDS011;38827;53.024;6.596;2023-05-19T04:21:25;21.77;;;8.50;;
52962;SDS011;38827;53.024;6.596;2023-05-19T04:23:51;17.33;;;7.65;;
52962;SDS011;38827;53.024;6.596;2023-05-19T04:26:17;17.00;;;8.10;;
52962;SDS011;38827;53.024;6.596;2023-05-19T04:28:45;16.90;;;7.45;;
52962;SDS011;38827;53.024;6.596;2023-05-19T04:31:15;25.83;;;8.85;;
52962;SDS011;38827;53.024;6.596;2023-05-19T04:33:41;18.70;;;7.57;;
52962;SDS011;38827;53.024;6.596;2023-05-19T04:36:06;24.40;;;7.68;;
52962;SDS011;38827;53.024;6.596;2023-05-19T04:38:37;23.25;;;7.90;;
52962;SDS011;38827;53.024;6.596;2023-05-19T04:41:04;16.38;;;7.50;;
52962;SDS011;38827;53.024;6.596;2023-05-19T04:43:34;24.75;;;7.55;;
52962;SDS011;38827;53.024;6.596;2023-05-19T04:46:00;21.67;;;8.00;;
52962;SDS011;38827;53.024;6.596;2023-05-19T04:48:30;21.90;;;7.68;;
52962;SDS011;38827;53.024;6.596;2023-05-19T04:50:56;16.83;;;7.13;;
52962;SDS011;38827;53.024;6.596;2023-05-19T04:53:21;14.95;;;7.00;;
52962;SDS011;38827;53.024;6.596;2023-05-19T04:55:49;20.13;;;7.53;;
52962;SDS011;38827;53.024;6.596;2023-05-19T04:58:15;19.83;;;7.80;;
52962;SDS011;38827;53.024;6.596;2023-05-19T05:00:41;19.85;;;7.65;;
52962;SDS011;38827;53.024;6.596;2023-05-19T05:03:07;16.73;;;6.97;;
52962;SDS011;38827;53.024;6.596;2023-05-19T05:05:33;17.85;;;7.40;;
52962;SDS011;38827;53.024;6.596;2023-05-19T05:07:59;18.17;;;7.53;;
52962;SDS011;38827;53.024;6.596;2023-05-19T05:10:25;19.95;;;7.22;;
52962;SDS011;38827;53.024;6.596;2023-05-19T05:12:51;19.30;;;7.43;;
52962;SDS011;38827;53.024;6.596;2023-05-19T05:15:18;17.30;;;7.00;;
52962;SDS011;38827;53.024;6.596;2023-05-19T05:17:44;19.67;;;7.10;;
52962;SDS011;38827;53.024;6.596;2023-05-19T05:20:10;20.88;;;7.45;;
52962;SDS011;38827;53.024;6.596;2023-05-19T05:22:37;17.80;;;7.20;;
52962;SDS011;38827;53.024;6.596;2023-05-19T05:25:03;20.15;;;7.05;;
52962;SDS011;38827;53.024;6.596;2023-05-19T05:27:29;15.00;;;6.00;;
52962;SDS011;38827;53.024;6.596;2023-05-19T05:32:22;21.23;;;7.47;;
52962;SDS011;38827;53.024;6.596;2023-05-19T05:34:47;15.05;;;6.78;;
52962;SDS011;38827;53.024;6.596;2023-05-19T05:37:14;17.70;;;6.82;;
52962;SDS011;38827;53.024;6.596;2023-05-19T05:39:40;16.42;;;6.70;;
52962;SDS011;38827;53.024;6.596;2023-05-19T05:42:06;18.27;;;7.25;;
52962;SDS011;38827;53.024;6.596;2023-05-19T05:44:34;14.80;;;6.93;;
52962;SDS011;38827;53.024;6.596;2023-05-19T05:47:01;15.50;;;6.43;;
52962;SDS011;38827;53.024;6.596;2023-05-19T05:51:53;17.13;;;6.07;;
52962;SDS011;38827;53.024;6.596;2023-05-19T05:54:20;12.70;;;6.40;;
52962;SDS011;38827;53.024;6.596;2023-05-19T05:56:47;11.15;;;6.65;;
52962;SDS011;38827;53.024;6.596;2023-05-19T05:59:13;12.43;;;6.40;;
52962;SDS011;38827;53.024;6.596;2023-05-19T06:01:39;11.60;;;5.57;;
52962;SDS011;38827;53.024;6.596;2023-05-19T06:04:06;14.25;;;6.00;;
52962;SDS011;38827;53.024;6.596;2023-05-19T06:06:32;11.55;;;5.70;;
52962;SDS011;38827;53.024;6.596;2023-05-19T06:08:58;13.52;;;6.22;;
52962;SDS011;38827;53.024;6.596;2023-05-19T06:11:23;15.45;;;6.15;;
52962;SDS011;38827;53.024;6.596;2023-05-19T06:13:49;11.93;;;6.13;;
52962;SDS011;38827;53.024;6.596;2023-05-19T06:16:15;13.65;;;5.72;;
52962;SDS011;38827;53.024;6.596;2023-05-19T06:18:40;15.80;;;6.00;;
52962;SDS011;38827;53.024;6.596;2023-05-19T06:21:06;9.98;;;5.68;;
52962;SDS011;38827;53.024;6.596;2023-05-19T06:23:34;13.95;;;5.90;;
52962;SDS011;38827;53.024;6.596;2023-05-19T06:26:00;15.02;;;6.22;;
52962;SDS011;38827;53.024;6.596;2023-05-19T06:28:26;11.80;;;5.80;;
52962;SDS011;38827;53.024;6.596;2023-05-19T06:30:51;12.40;;;6.15;;
52962;SDS011;38827;53.024;6.596;2023-05-19T06:33:17;10.23;;;4.90;;
52962;SDS011;38827;53.024;6.596;2023-05-19T06:35:43;12.68;;;5.47;;
52962;SDS011;38827;53.024;6.596;2023-05-19T06:38:08;12.30;;;5.47;;
52962;SDS011;38827;53.024;6.596;2023-05-19T06:40:34;16.67;;;6.60;;
52962;SDS011;38827;53.024;6.596;2023-05-19T06:43:01;10.50;;;5.57;;
52962;SDS011;38827;53.024;6.596;2023-05-19T06:45:26;9.35;;;4.50;;
52962;SDS011;38827;53.024;6.596;2023-05-19T06:47:52;9.43;;;4.85;;
52962;SDS011;38827;53.024;6.596;2023-05-19T06:50:18;10.73;;;4.50;;
52962;SDS011;38827;53.024;6.596;2023-05-19T06:52:44;11.18;;;4.45;;
52962;SDS011;38827;53.024;6.596;2023-05-19T06:57:37;11.87;;;4.53;;
52962;SDS011;38827;53.024;6.596;2023-05-19T07:00:03;11.38;;;3.63;;
52962;SDS011;38827;53.024;6.596;2023-05-19T07:04:55;10.73;;;3.67;;
52962;SDS011;38827;53.024;6.596;2023-05-19T07:07:21;12.40;;;3.40;;
52962;SDS011;38827;53.024;6.596;2023-05-19T07:09:47;10.77;;;3.50;;
52962;SDS011;38827;53.024;6.596;2023-05-19T07:12:12;6.03;;;3.25;;
52962;SDS011;38827;53.024;6.596;2023-05-19T07:14:40;8.80;;;2.97;;
52962;SDS011;38827;53.024;6.596;2023-05-19T07:17:06;7.50;;;3.35;;
52962;SDS011;38827;53.024;6.596;2023-05-19T07:19:32;8.52;;;3.28;;
52962;SDS011;38827;53.024;6.596;2023-05-19T07:21:57;9.05;;;3.78;;
52962;SDS011;38827;53.024;6.596;2023-05-19T07:24:23;6.90;;;3.10;;
52962;SDS011;38827;53.024;6.596;2023-05-19T07:26:49;12.70;;;3.53;;
52962;SDS011;38827;53.024;6.596;2023-05-19T07:29:15;8.50;;;2.97;;
52962;SDS011;38827;53.024;6.596;2023-05-19T07:31:40;7.68;;;2.88;;
52962;SDS011;38827;53.024;6.596;2023-05-19T07:34:06;10.95;;;3.72;;
52962;SDS011;38827;53.024;6.596;2023-05-19T07:36:32;8.85;;;3.05;;
52962;SDS011;38827;53.024;6.596;2023-05-19T07:38:58;9.93;;;2.63;;
52962;SDS011;38827;53.024;6.596;2023-05-19T07:41:24;8.95;;;3.33;;
52962;SDS011;38827;53.024;6.596;2023-05-19T07:43:50;6.75;;;2.90;;
52962;SDS011;38827;53.024;6.596;2023-05-19T07:46:16;5.85;;;3.10;;
52962;SDS011;38827;53.024;6.596;2023-05-19T07:48:41;6.85;;;2.60;;
52962;SDS011;38827;53.024;6.596;2023-05-19T07:51:09;7.70;;;2.85;;
52962;SDS011;38827;53.024;6.596;2023-05-19T07:53:51;10.02;;;2.72;;
52962;SDS011;38827;53.024;6.596;2023-05-19T07:56:17;7.20;;;2.42;;
52962;SDS011;38827;53.024;6.596;2023-05-19T07:58:46;5.82;;;2.53;;
52962;SDS011;38827;53.024;6.596;2023-05-19T08:01:12;7.90;;;2.33;;
52962;SDS011;38827;53.024;6.596;2023-05-19T08:03:38;8.88;;;2.33;;
52962;SDS011;38827;53.024;6.596;2023-05-19T08:06:19;6.25;;;2.35;;
52962;SDS011;38827;53.024;6.596;2023-05-19T08:08:48;6.43;;;2.50;;
52962;SDS011;38827;53.024;6.596;2023-05-19T08:11:59;5.68;;;2.00;;
52962;SDS011;38827;53.024;6.596;2023-05-19T08:14:24;10.02;;;2.40;;
52962;SDS011;38827;53.024;6.596;2023-05-19T08:17:38;4.75;;;1.90;;
52962;SDS011;38827;53.024;6.596;2023-05-19T08:20:22;8.25;;;2.53;;
52962;SDS011;38827;53.024;6.596;2023-05-19T08:25:23;5.45;;;1.90;;
52962;SDS011;38827;53.024;6.596;2023-05-19T08:27:49;6.50;;;1.80;;
52962;SDS011;38827;53.024;6.596;2023-05-19T08:30:15;5.75;;;2.05;;
52962;SDS011;38827;53.024;6.596;2023-05-19T08:32:41;6.45;;;2.10;;
52962;SDS011;38827;53.024;6.596;2023-05-19T08:35:07;5.35;;;1.98;;
52962;SDS011;38827;53.024;6.596;2023-05-19T08:37:33;5.67;;;1.77;;
52962;SDS011;38827;53.024;6.596;2023-05-19T08:40:01;4.63;;;1.70;;
52962;SDS011;38827;53.024;6.596;2023-05-19T08:42:29;9.15;;;2.00;;
52962;SDS011;38827;53.024;6.596;2023-05-19T08:44:54;7.35;;;1.90;;
52962;SDS011;38827;53.024;6.596;2023-05-19T08:47:20;5.82;;;2.00;;
52962;SDS011;38827;53.024;6.596;2023-05-19T08:49:58;6.13;;;1.67;;
52962;SDS011;38827;53.024;6.596;2023-05-19T08:53:09;6.18;;;1.98;;
52962;SDS011;38827;53.024;6.596;2023-05-19T08:56:15;5.85;;;1.70;;
52962;SDS011;38827;53.024;6.596;2023-05-19T08:58:50;7.82;;;2.20;;
52962;SDS011;38827;53.024;6.596;2023-05-19T09:01:28;3.92;;;1.75;;
52962;SDS011;38827;53.024;6.596;2023-05-19T09:04:07;7.53;;;1.88;;
52962;SDS011;38827;53.024;6.596;2023-05-19T09:06:42;6.13;;;1.73;;
52962;SDS011;38827;53.024;6.596;2023-05-19T09:09:09;9.85;;;2.05;;
52962;SDS011;38827;53.024;6.596;2023-05-19T09:11:35;5.18;;;1.90;;
52962;SDS011;38827;53.024;6.596;2023-05-19T09:14:04;4.38;;;1.65;;
52962;SDS011;38827;53.024;6.596;2023-05-19T09:16:29;4.32;;;1.73;;
52962;SDS011;38827;53.024;6.596;2023-05-19T09:21:45;4.88;;;1.60;;
52962;SDS011;38827;53.024;6.596;2023-05-19T09:24:36;5.38;;;1.58;;
52962;SDS011;38827;53.024;6.596;2023-05-19T09:27:04;5.78;;;1.60;;
52962;SDS011;38827;53.024;6.596;2023-05-19T09:29:30;5.00;;;1.70;;
52962;SDS011;38827;53.024;6.596;2023-05-19T09:31:55;7.05;;;2.28;;
52962;SDS011;38827;53.024;6.596;2023-05-19T09:34:32;5.47;;;2.10;;
52962;SDS011;38827;53.024;6.596;2023-05-19T09:36:58;4.90;;;1.70;;
52962;SDS011;38827;53.024;6.596;2023-05-19T09:39:24;7.10;;;2.17;;
52962;SDS011;38827;53.024;6.596;2023-05-19T09:41:53;4.85;;;1.77;;
52962;SDS011;38827;53.024;6.596;2023-05-19T09:44:22;5.22;;;2.00;;
52962;SDS011;38827;53.024;6.596;2023-05-19T09:46:53;5.63;;;2.00;;
52962;SDS011;38827;53.024;6.596;2023-05-19T09:51:47;5.05;;;1.67;;
52962;SDS011;38827;53.024;6.596;2023-05-19T09:54:23;8.13;;;1.83;;
52962;SDS011;38827;53.024;6.596;2023-05-19T09:56:59;7.50;;;2.17;;
52962;SDS011;38827;53.024;6.596;2023-05-19T09:59:29;4.75;;;2.17;;
52962;SDS011;38827;53.024;6.596;2023-05-19T10:01:56;7.28;;;1.88;;
52962;SDS011;38827;53.024;6.596;2023-05-19T10:04:24;4.97;;;1.95;;
52962;SDS011;38827;53.024;6.596;2023-05-19T10:06:51;4.75;;;1.70;;
52962;SDS011;38827;53.024;6.596;2023-05-19T10:09:22;4.75;;;1.77;;
52962;SDS011;38827;53.024;6.596;2023-05-19T10:11:51;5.72;;;1.90;;
52962;SDS011;38827;53.024;6.596;2023-05-19T10:14:22;4.97;;;1.80;;
52962;SDS011;38827;53.024;6.596;2023-05-19T10:16:52;6.22;;;1.60;;
52962;SDS011;38827;53.024;6.596;2023-05-19T10:19:22;4.53;;;1.70;;
52962;SDS011;38827;53.024;6.596;2023-05-19T10:21:49;5.93;;;1.88;;
52962;SDS011;38827;53.024;6.596;2023-05-19T10:24:16;5.45;;;1.48;;
52962;SDS011;38827;53.024;6.596;2023-05-19T10:26:56;5.57;;;1.98;;
52962;SDS011;38827;53.024;6.596;2023-05-19T10:29:35;6.85;;;1.80;;
52962;SDS011;38827;53.024;6.596;2023-05-19T10:32:09;4.80;;;1.75;;
52962;SDS011;38827;53.024;6.596;2023-05-19T10:46:00;7.80;;;2.10;;
52962;SDS011;38827;53.024;6.596;2023-05-19T10:48:28;5.72;;;2.05;;
52962;SDS011;38827;53.024;6.596;2023-05-19T10:50:59;6.80;;;2.13;;
52962;SDS011;38827;53.024;6.596;2023-05-19T10:53:31;4.67;;;1.77;;
52962;SDS011;38827;53.024;6.596;2023-05-19T10:55:57;4.88;;;1.90;;
52962;SDS011;38827;53.024;6.596;2023-05-19T11:01:12;3.90;;;1.80;;
52962;SDS011;38827;53.024;6.596;2023-05-19T11:03:51;7.40;;;2.15;;
52962;SDS011;38827;53.024;6.596;2023-05-19T11:08:58;4.60;;;2.00;;
52962;SDS011;38827;53.024;6.596;2023-05-19T11:11:50;6.18;;;2.10;;
52962;SDS011;38827;53.024;6.596;2023-05-19T11:14:25;6.63;;;2.00;;
52962;SDS011;38827;53.024;6.596;2023-05-19T11:16:52;7.20;;;2.30;;
52962;SDS011;38827;53.024;6.596;2023-05-19T11:19:30;6.45;;;2.08;;
52962;SDS011;38827;53.024;6.596;2023-05-19T11:22:11;6.88;;;1.92;;
52962;SDS011;38827;53.024;6.596;2023-05-19T11:24:44;5.32;;;2.05;;
52962;SDS011;38827;53.024;6.596;2023-05-19T11:29:57;8.43;;;2.30;;
52962;SDS011;38827;53.024;6.596;2023-05-19T11:32:28;5.68;;;1.77;;
52962;SDS011;38827;53.024;6.596;2023-05-19T11:34:55;7.53;;;2.22;;
52962;SDS011;38827;53.024;6.596;2023-05-19T11:37:22;5.50;;;1.95;;
52962;SDS011;38827;53.024;6.596;2023-05-19T11:39:48;4.78;;;1.95;;
52962;SDS011;38827;53.024;6.596;2023-05-19T11:42:14;5.67;;;2.00;;
52962;SDS011;38827;53.024;6.596;2023-05-19T11:44:41;3.45;;;1.80;;
52962;SDS011;38827;53.024;6.596;2023-05-19T11:47:10;5.35;;;2.05;;
52962;SDS011;38827;53.024;6.596;2023-05-19T11:49:36;7.82;;;2.35;;
52962;SDS011;38827;53.024;6.596;2023-05-19T11:52:02;7.07;;;2.10;;
52962;SDS011;38827;53.024;6.596;2023-05-19T11:54:34;5.90;;;2.17;;
52962;SDS011;38827;53.024;6.596;2023-05-19T11:57:01;7.45;;;2.08;;
52962;SDS011;38827;53.024;6.596;2023-05-19T11:59:31;5.70;;;2.05;;
52962;SDS011;38827;53.024;6.596;2023-05-19T12:02:01;6.75;;;2.40;;
52962;SDS011;38827;53.024;6.596;2023-05-19T12:04:38;5.80;;;2.30;;
52962;SDS011;38827;53.024;6.596;2023-05-19T12:07:07;8.83;;;2.03;;
52962;SDS011;38827;53.024;6.596;2023-05-19T12:09:34;7.93;;;2.50;;
52962;SDS011;38827;53.024;6.596;2023-05-19T12:12:01;7.25;;;2.45;;
52962;SDS011;38827;53.024;6.596;2023-05-19T12:14:28;7.55;;;2.35;;
52962;SDS011;38827;53.024;6.596;2023-05-19T12:16:58;6.82;;;2.50;;
52962;SDS011;38827;53.024;6.596;2023-05-19T12:19:33;5.90;;;2.45;;
52962;SDS011;38827;53.024;6.596;2023-05-19T12:22:02;5.35;;;1.90;;
52962;SDS011;38827;53.024;6.596;2023-05-19T12:29:53;5.47;;;1.98;;
52962;SDS011;38827;53.024;6.596;2023-05-19T12:32:24;6.43;;;2.22;;
52962;SDS011;38827;53.024;6.596;2023-05-19T12:34:52;7.50;;;2.50;;
52962;SDS011;38827;53.024;6.596;2023-05-19T12:37:20;8.23;;;2.42;;
52962;SDS011;38827;53.024;6.596;2023-05-19T12:39:47;6.35;;;2.08;;
52962;SDS011;38827;53.024;6.596;2023-05-19T12:42:14;6.32;;;2.47;;
52962;SDS011;38827;53.024;6.596;2023-05-19T12:47:13;6.85;;;1.98;;
52962;SDS011;38827;53.024;6.596;2023-05-19T12:55:37;6.50;;;2.15;;
52962;SDS011;38827;53.024;6.596;2023-05-19T12:58:19;4.93;;;2.33;;
52962;SDS011;38827;53.024;6.596;2023-05-19T13:01:05;5.88;;;2.38;;
52962;SDS011;38827;53.024;6.596;2023-05-19T13:03:38;7.85;;;1.92;;
52962;SDS011;38827;53.024;6.596;2023-05-19T13:06:16;6.25;;;2.13;;
52962;SDS011;38827;53.024;6.596;2023-05-19T13:08:47;8.73;;;2.40;;
52962;SDS011;38827;53.024;6.596;2023-05-19T13:11:13;7.72;;;2.38;;
52962;SDS011;38827;53.024;6.596;2023-05-19T13:13:56;6.93;;;2.22;;
52962;SDS011;38827;53.024;6.596;2023-05-19T13:16:21;6.53;;;2.70;;
52962;SDS011;38827;53.024;6.596;2023-05-19T13:18:47;5.97;;;2.80;;
52962;SDS011;38827;53.024;6.596;2023-05-19T13:21:13;7.47;;;2.70;;
52962;SDS011;38827;53.024;6.596;2023-05-19T13:23:45;8.73;;;2.33;;
52962;SDS011;38827;53.024;6.596;2023-05-19T13:26:17;8.63;;;2.30;;
52962;SDS011;38827;53.024;6.596;2023-05-19T13:28:43;5.65;;;2.03;;
52962;SDS011;38827;53.024;6.596;2023-05-19T13:31:12;7.43;;;2.23;;
52962;SDS011;38827;53.024;6.596;2023-05-19T13:33:37;5.68;;;2.30;;
52962;SDS011;38827;53.024;6.596;2023-05-19T13:36:03;7.53;;;2.33;;
52962;SDS011;38827;53.024;6.596;2023-05-19T13:38:29;6.82;;;2.10;;
52962;SDS011;38827;53.024;6.596;2023-05-19T13:40:55;5.50;;;2.07;;
52962;SDS011;38827;53.024;6.596;2023-05-19T13:43:21;6.33;;;2.20;;
52962;SDS011;38827;53.024;6.596;2023-05-19T13:45:49;9.27;;;2.30;;
52962;SDS011;38827;53.024;6.596;2023-05-19T13:48:15;6.50;;;2.07;;
52962;SDS011;38827;53.024;6.596;2023-05-19T13:50:44;8.30;;;2.22;;
52962;SDS011;38827;53.024;6.596;2023-05-19T13:53:09;5.97;;;2.13;;
52962;SDS011;38827;53.024;6.596;2023-05-19T13:55:35;6.80;;;2.17;;
52962;SDS011;38827;53.024;6.596;2023-05-19T13:58:01;5.37;;;2.00;;
52962;SDS011;38827;53.024;6.596;2023-05-19T14:00:30;5.20;;;2.10;;
52962;SDS011;38827;53.024;6.596;2023-05-19T14:02:56;7.97;;;2.00;;
52962;SDS011;38827;53.024;6.596;2023-05-19T14:05:27;7.65;;;2.00;;
52962;SDS011;38827;53.024;6.596;2023-05-19T14:07:53;4.80;;;1.80;;
52962;SDS011;38827;53.024;6.596;2023-05-19T14:10:19;5.20;;;1.73;;
52962;SDS011;38827;53.024;6.596;2023-05-19T14:12:45;5.80;;;1.83;;
52962;SDS011;38827;53.024;6.596;2023-05-19T14:15:10;7.20;;;2.37;;
52962;SDS011;38827;53.024;6.596;2023-05-19T14:17:39;7.47;;;2.20;;
52962;SDS011;38827;53.024;6.596;2023-05-19T14:20:05;8.52;;;2.10;;
52962;SDS011;38827;53.024;6.596;2023-05-19T14:22:31;8.70;;;1.92;;
52962;SDS011;38827;53.024;6.596;2023-05-19T14:24:57;7.07;;;1.93;;
52962;SDS011;38827;53.024;6.596;2023-05-19T14:27:24;7.60;;;2.17;;
52962;SDS011;38827;53.024;6.596;2023-05-19T14:29:50;7.90;;;2.27;;
52962;SDS011;38827;53.024;6.596;2023-05-19T14:32:22;18.30;;;2.73;;
52962;SDS011;38827;53.024;6.596;2023-05-19T14:34:50;5.78;;;2.20;;
52962;SDS011;38827;53.024;6.596;2023-05-19T14:37:17;8.20;;;2.28;;
52962;SDS011;38827;53.024;6.596;2023-05-19T14:39:43;6.10;;;2.20;;
52962;SDS011;38827;53.024;6.596;2023-05-19T14:42:09;4.53;;;1.90;;
52962;SDS011;38827;53.024;6.596;2023-05-19T14:44:35;7.47;;;1.90;;
52962;SDS011;38827;53.024;6.596;2023-05-19T14:47:01;6.60;;;2.00;;
52962;SDS011;38827;53.024;6.596;2023-05-19T14:49:28;6.53;;;2.22;;
52962;SDS011;38827;53.024;6.596;2023-05-19T14:51:54;7.47;;;2.22;;
52962;SDS011;38827;53.024;6.596;2023-05-19T14:54:20;5.18;;;2.17;;
52962;SDS011;38827;53.024;6.596;2023-05-19T14:56:46;6.80;;;2.20;;
52962;SDS011;38827;53.024;6.596;2023-05-19T14:59:12;7.00;;;2.40;;
52962;SDS011;38827;53.024;6.596;2023-05-19T15:01:37;7.47;;;2.70;;
52962;SDS011;38827;53.024;6.596;2023-05-19T15:04:03;7.73;;;2.27;;
52962;SDS011;38827;53.024;6.596;2023-05-19T15:06:32;11.55;;;2.30;;
52962;SDS011;38827;53.024;6.596;2023-05-19T15:08:58;5.27;;;2.10;;
52962;SDS011;38827;53.024;6.596;2023-05-19T15:11:23;5.90;;;2.03;;
52962;SDS011;38827;53.024;6.596;2023-05-19T15:13:50;7.50;;;2.20;;
52962;SDS011;38827;53.024;6.596;2023-05-19T15:16:15;6.33;;;2.30;;
52962;SDS011;38827;53.024;6.596;2023-05-19T15:18:41;6.13;;;2.20;;
52962;SDS011;38827;53.024;6.596;2023-05-19T15:21:06;7.57;;;3.33;;
52962;SDS011;38827;53.024;6.596;2023-05-19T15:23:32;5.43;;;2.20;;
52962;SDS011;38827;53.024;6.596;2023-05-19T15:25:58;8.77;;;2.03;;
52962;SDS011;38827;53.024;6.596;2023-05-19T15:28:23;6.73;;;2.10;;
52962;SDS011;38827;53.024;6.596;2023-05-19T15:33:38;7.38;;;2.30;;
52962;SDS011;38827;53.024;6.596;2023-05-19T15:36:04;6.40;;;2.20;;
52962;SDS011;38827;53.024;6.596;2023-05-19T15:38:37;9.73;;;2.88;;
52962;SDS011;38827;53.024;6.596;2023-05-19T15:41:06;6.45;;;2.30;;
52962;SDS011;38827;53.024;6.596;2023-05-19T15:43:32;6.28;;;2.17;;
52962;SDS011;38827;53.024;6.596;2023-05-19T15:45:58;8.27;;;2.30;;
52962;SDS011;38827;53.024;6.596;2023-05-19T15:53:42;9.05;;;2.38;;
52962;SDS011;38827;53.024;6.596;2023-05-19T15:59:16;5.05;;;1.92;;
52962;SDS011;38827;53.024;6.596;2023-05-19T16:01:48;7.00;;;2.07;;
52962;SDS011;38827;53.024;6.596;2023-05-19T16:04:14;6.57;;;2.50;;
52962;SDS011;38827;53.024;6.596;2023-05-19T16:06:41;4.45;;;2.38;;
52962;SDS011;38827;53.024;6.596;2023-05-19T16:09:08;5.85;;;2.28;;